createdAt,value
2017-08-04T00:00:56.949Z,21.70
2017-08-04T00:03:24.151Z,21.70
2017-08-04T00:05:50.355Z,21.70
2017-08-04T00:08:16.579Z,21.70
2017-08-04T00:10:42.915Z,21.60
2017-08-04T00:13:09.984Z,21.60
2017-08-04T00:15:36.196Z,21.60
2017-08-04T00:18:04.898Z,21.60
2017-08-04T00:20:32.233Z,21.60
2017-08-04T00:22:58.655Z,21.60
2017-08-04T00:25:25.190Z,21.60
2017-08-04T00:27:51.420Z,21.60
2017-08-04T00:30:17.654Z,21.60
2017-08-04T00:32:45.851Z,21.70
2017-08-04T00:35:12.067Z,21.70
2017-08-04T00:37:39.006Z,21.70
2017-08-04T00:40:05.251Z,21.50
2017-08-04T00:42:31.463Z,21.40
2017-08-04T00:44:57.664Z,21.50
2017-08-04T00:47:23.810Z,21.40
2017-08-04T00:49:50.179Z,21.40
2017-08-04T00:52:17.169Z,21.50
2017-08-04T00:54:46.627Z,21.40
2017-08-04T00:57:12.829Z,21.50
2017-08-04T00:59:39.052Z,21.50
2017-08-04T01:02:05.267Z,21.50
2017-08-04T01:04:32.179Z,21.50
2017-08-04T01:06:58.510Z,21.60
2017-08-04T01:09:25.575Z,21.60
2017-08-04T01:11:52.660Z,21.60
2017-08-04T01:14:20.401Z,21.60
2017-08-04T01:16:46.897Z,21.60
2017-08-04T01:19:14.218Z,21.50
2017-08-04T01:21:41.365Z,21.50
2017-08-04T01:24:07.534Z,21.40
2017-08-04T01:26:33.755Z,21.40
2017-08-04T01:29:00.177Z,21.30
2017-08-04T01:31:27.072Z,21.30
2017-08-04T01:33:54.300Z,21.40
2017-08-04T01:36:21.034Z,21.30
2017-08-04T01:38:48.793Z,21.30
2017-08-04T01:41:14.971Z,21.40
2017-08-04T01:43:41.206Z,21.40
2017-08-04T01:46:08.388Z,21.50
2017-08-04T01:48:34.665Z,21.50
2017-08-04T01:51:01.595Z,21.50
2017-08-04T01:53:27.794Z,21.50
2017-08-04T01:55:53.998Z,21.40
2017-08-04T01:58:20.194Z,21.50
2017-08-04T02:00:47.086Z,21.40
2017-08-04T02:03:13.255Z,21.40
2017-08-04T02:05:39.484Z,21.40
2017-08-04T02:08:05.683Z,21.40
2017-08-04T02:10:31.908Z,21.50
2017-08-04T02:12:58.163Z,21.40
2017-08-04T02:15:24.411Z,21.40
2017-08-04T02:17:51.315Z,21.40
2017-08-04T02:20:17.574Z,21.40
2017-08-04T02:22:43.750Z,21.40
2017-08-04T02:25:09.965Z,21.30
2017-08-04T02:27:36.207Z,21.30
2017-08-04T02:30:02.446Z,21.30
2017-08-04T02:32:28.639Z,21.30
2017-08-04T02:34:54.824Z,21.50
2017-08-04T02:37:21.062Z,21.20
2017-08-04T02:39:47.228Z,21.30
2017-08-04T02:42:13.798Z,21.30
2017-08-04T02:44:39.986Z,21.20
2017-08-04T02:47:06.933Z,21.20
2017-08-04T02:49:33.495Z,21.20
2017-08-04T02:51:59.656Z,21.30
2017-08-04T02:54:25.852Z,21.30
2017-08-04T02:56:52.026Z,21.20
2017-08-04T02:59:19.022Z,21.20
2017-08-04T03:01:45.214Z,21.20
2017-08-04T03:04:11.775Z,21.10
2017-08-04T03:06:38.030Z,21.10
2017-08-04T03:09:04.562Z,21.10
2017-08-04T03:11:30.718Z,21.00
2017-08-04T03:13:57.283Z,21.00
2017-08-04T03:16:24.185Z,20.90
2017-08-04T03:18:50.742Z,20.90
2017-08-04T03:21:16.920Z,20.90
2017-08-04T03:23:43.160Z,20.90
2017-08-04T03:26:09.333Z,20.90
2017-08-04T03:28:35.509Z,20.90
2017-08-04T03:31:01.721Z,20.90
2017-08-04T03:33:27.975Z,20.90
2017-08-04T03:35:54.114Z,20.80
2017-08-04T03:38:20.289Z,20.90
2017-08-04T03:40:47.238Z,20.90
2017-08-04T03:43:13.790Z,20.90
2017-08-04T03:45:40.752Z,20.90
2017-08-04T03:48:06.914Z,20.90
2017-08-04T03:50:33.125Z,20.80
2017-08-04T03:52:59.639Z,20.70
2017-08-04T03:55:25.835Z,20.60
2017-08-04T03:57:52.785Z,20.50
2017-08-04T04:00:19.788Z,20.50
2017-08-04T04:02:45.985Z,20.40
2017-08-04T04:05:12.192Z,20.40
2017-08-04T04:07:39.169Z,20.40
2017-08-04T04:10:05.360Z,20.40
2017-08-04T04:12:32.282Z,20.40
2017-08-04T04:14:58.488Z,20.40
2017-08-04T04:17:24.683Z,20.40
2017-08-04T04:19:50.888Z,20.40
2017-08-04T04:22:18.622Z,20.40
2017-08-04T04:27:12.907Z,20.50
2017-08-04T04:29:39.075Z,20.50
2017-08-04T04:32:05.990Z,20.40
2017-08-04T04:34:32.165Z,20.40
2017-08-04T04:36:59.127Z,20.40
2017-08-04T04:39:25.322Z,20.40
2017-08-04T04:41:51.505Z,20.40
2017-08-04T04:44:17.692Z,20.50
2017-08-04T04:46:44.635Z,20.60
2017-08-04T04:49:11.583Z,20.60
2017-08-04T04:51:38.494Z,20.70
2017-08-04T04:54:04.692Z,20.70
2017-08-04T04:56:30.903Z,20.60
2017-08-04T04:58:57.094Z,20.70
2017-08-04T05:01:24.536Z,20.90
2017-08-04T05:03:51.552Z,21.10
2017-08-04T05:06:17.744Z,21.30
2017-08-04T05:08:43.964Z,21.40
2017-08-04T05:11:10.151Z,21.50
2017-08-04T05:13:36.344Z,21.60
2017-08-04T05:16:04.262Z,21.70
2017-08-04T05:18:30.428Z,21.80
2017-08-04T05:20:57.499Z,21.80
2017-08-04T05:23:23.678Z,21.80
2017-08-04T05:25:49.871Z,21.80
2017-08-04T05:28:16.166Z,21.80
2017-08-04T05:30:43.170Z,21.70
2017-08-04T05:33:09.344Z,21.70
2017-08-04T05:35:35.932Z,21.70
2017-08-04T05:38:02.203Z,21.60
2017-08-04T05:40:29.144Z,21.60
2017-08-04T05:42:56.093Z,21.60
2017-08-04T05:45:23.066Z,21.70
2017-08-04T05:47:49.394Z,21.60
2017-08-04T05:50:15.607Z,21.50
2017-08-04T05:52:42.541Z,21.50
2017-08-04T05:55:08.703Z,21.60
2017-08-04T05:57:34.877Z,21.60
2017-08-04T06:00:01.106Z,21.60
2017-08-04T06:02:27.425Z,21.60
2017-08-04T06:04:53.634Z,21.60
2017-08-04T06:07:19.858Z,21.50
2017-08-04T06:09:46.109Z,21.60
2017-08-04T06:12:12.278Z,21.60
2017-08-04T06:14:39.165Z,21.90
2017-08-04T06:17:05.353Z,21.90
2017-08-04T06:19:32.280Z,22.30
2017-08-04T06:21:59.259Z,22.50
2017-08-04T06:24:25.434Z,22.60
2017-08-04T06:26:51.651Z,23.20
2017-08-04T06:29:17.843Z,23.20
2017-08-04T06:31:44.062Z,23.10
2017-08-04T06:34:11.002Z,23.30
2017-08-04T06:36:37.911Z,23.40
2017-08-04T06:39:04.111Z,23.30
2017-08-04T06:41:30.344Z,23.30
2017-08-04T06:43:56.576Z,23.30
2017-08-04T06:46:22.799Z,23.30
2017-08-04T06:49:01.277Z,23.10
2017-08-04T06:51:41.203Z,22.90
2017-08-04T06:54:19.723Z,22.70
2017-08-04T06:56:45.907Z,22.60
2017-08-04T06:59:12.103Z,23.50
2017-08-04T07:01:38.458Z,24.50
2017-08-04T07:04:04.676Z,25.10
2017-08-04T07:06:31.632Z,25.20
2017-08-04T07:08:57.830Z,25.00
2017-08-04T07:11:23.988Z,24.70
2017-08-04T07:13:50.262Z,24.60
2017-08-04T07:16:16.443Z,24.10
2017-08-04T07:18:43.102Z,24.10
2017-08-04T07:21:09.308Z,23.70
2017-08-04T07:23:35.497Z,23.60
2017-08-04T07:26:01.695Z,23.20
2017-08-04T07:28:28.053Z,23.10
2017-08-04T07:31:17.214Z,24.60
2017-08-04T07:33:44.168Z,24.90
2017-08-04T07:36:10.364Z,26.20
2017-08-04T07:38:37.294Z,27.50
2017-08-04T07:41:03.589Z,27.70
2017-08-04T07:43:29.782Z,27.00
2017-08-04T07:45:56.007Z,26.60
2017-08-04T07:48:22.171Z,25.80
2017-08-04T07:50:49.091Z,24.60
2017-08-04T07:53:15.283Z,24.50
2017-08-04T07:55:41.514Z,24.30
2017-08-04T07:58:07.723Z,24.30
2017-08-04T08:00:34.486Z,24.20
2017-08-04T08:03:00.690Z,24.30
2017-08-04T08:05:27.263Z,24.30
2017-08-04T08:07:53.434Z,24.20
2017-08-04T08:10:20.447Z,24.40
2017-08-04T08:12:46.656Z,24.40
2017-08-04T08:15:12.851Z,24.60
2017-08-04T08:17:39.423Z,24.60
2017-08-04T08:20:05.604Z,24.60
2017-08-04T08:22:31.913Z,24.70
2017-08-04T08:24:58.171Z,25.20
2017-08-04T08:27:24.326Z,25.30
2017-08-04T08:29:50.504Z,25.50
2017-08-04T08:32:16.693Z,25.60
2017-08-04T08:34:42.958Z,25.60
2017-08-04T08:37:09.117Z,25.60
2017-08-04T08:39:36.038Z,25.30
2017-08-04T08:42:02.290Z,25.20
2017-08-04T08:44:29.233Z,24.70
2017-08-04T08:46:56.317Z,24.50
2017-08-04T08:49:22.542Z,24.30
2017-08-04T08:51:48.835Z,24.20
2017-08-04T08:54:15.064Z,24.00
2017-08-04T08:56:42.002Z,23.90
2017-08-04T08:59:08.950Z,23.90
2017-08-04T09:01:35.169Z,23.90
2017-08-04T09:04:01.305Z,24.00
2017-08-04T09:06:27.487Z,23.90
2017-08-04T09:08:53.722Z,24.00
2017-08-04T09:11:19.902Z,24.00
2017-08-04T09:13:46.111Z,24.10
2017-08-04T09:16:12.290Z,24.10
2017-08-04T09:18:38.475Z,24.20
2017-08-04T09:21:04.695Z,24.40
2017-08-04T09:23:30.899Z,24.70
2017-08-04T09:25:57.059Z,24.80
2017-08-04T09:28:23.282Z,25.20
2017-08-04T09:30:50.282Z,26.10
2017-08-04T09:33:16.494Z,26.30
2017-08-04T09:35:43.524Z,26.30
2017-08-04T09:38:10.474Z,26.20
2017-08-04T09:40:37.412Z,26.00
2017-08-04T09:43:04.356Z,25.70
2017-08-04T09:45:30.535Z,25.70
2017-08-04T09:47:56.738Z,25.70
2017-08-04T09:50:22.932Z,25.70
2017-08-04T09:52:49.106Z,26.00
2017-08-04T09:55:15.311Z,27.00
2017-08-04T09:57:42.251Z,27.70
2017-08-04T10:00:09.166Z,28.40
2017-08-04T10:02:35.367Z,28.70
2017-08-04T10:05:01.524Z,29.70
2017-08-04T10:07:28.437Z,30.40
2017-08-04T10:09:54.612Z,30.10
2017-08-04T10:12:20.828Z,29.80
2017-08-04T10:14:47.028Z,29.90
2017-08-04T10:17:13.281Z,30.60
2017-08-04T10:19:39.411Z,30.70
2017-08-04T10:22:05.553Z,30.80
2017-08-04T10:24:32.510Z,29.90
2017-08-04T10:26:59.472Z,29.80
2017-08-04T10:29:26.385Z,29.70
2017-08-04T10:31:52.579Z,29.80
2017-08-04T10:34:18.745Z,29.70
2017-08-04T10:36:44.906Z,29.60
2017-08-04T10:39:11.105Z,29.10
2017-08-04T10:41:37.310Z,29.10
2017-08-04T10:44:03.573Z,29.50
2017-08-04T10:46:30.548Z,29.90
2017-08-04T10:48:56.719Z,30.10
2017-08-04T10:51:23.025Z,30.00
2017-08-04T10:53:49.231Z,30.00
2017-08-04T10:56:15.802Z,30.20
2017-08-04T10:58:41.977Z,30.20
2017-08-04T11:01:08.894Z,30.30
2017-08-04T11:03:35.134Z,30.40
2017-08-04T11:06:01.333Z,30.60
2017-08-04T11:08:27.508Z,30.70
2017-08-04T11:10:53.783Z,30.80
2017-08-04T11:13:19.912Z,30.70
2017-08-04T11:15:46.103Z,30.70
2017-08-04T11:18:12.342Z,30.80
2017-08-04T11:20:38.532Z,30.60
2017-08-04T11:23:04.702Z,30.80
2017-08-04T11:25:30.900Z,31.00
2017-08-04T11:27:57.750Z,31.20
2017-08-04T11:30:23.968Z,31.30
2017-08-04T11:32:50.432Z,31.50
2017-08-04T11:35:16.845Z,31.00
2017-08-04T11:37:43.506Z,30.30
2017-08-04T11:40:10.411Z,29.60
2017-08-04T11:42:37.364Z,29.00
2017-08-04T11:45:03.569Z,28.50
2017-08-04T11:47:29.782Z,28.20
2017-08-04T11:49:56.010Z,28.00
2017-08-04T11:52:22.271Z,28.00
2017-08-04T11:54:48.544Z,28.30
2017-08-04T11:57:14.731Z,28.30
2017-08-04T11:59:40.927Z,28.40
2017-08-04T12:02:07.113Z,28.60
2017-08-04T12:04:33.326Z,28.60
2017-08-04T12:07:00.229Z,28.40
2017-08-04T12:09:26.428Z,28.10
2017-08-04T12:11:53.026Z,27.70
2017-08-04T12:14:19.270Z,27.60
2017-08-04T12:16:45.474Z,27.60
2017-08-04T12:19:11.655Z,27.60
2017-08-04T12:21:37.846Z,27.70
2017-08-04T12:24:04.481Z,27.80
2017-08-04T12:26:31.788Z,28.40
2017-08-04T12:28:57.983Z,28.90
2017-08-04T12:31:24.928Z,29.10
2017-08-04T12:33:52.213Z,29.50
2017-08-04T12:36:19.312Z,29.50
2017-08-04T12:38:46.569Z,29.60
2017-08-04T12:43:40.704Z,30.40
2017-08-04T12:46:06.942Z,30.40
2017-08-04T12:48:33.135Z,30.20
2017-08-04T12:50:59.756Z,30.20
2017-08-04T12:53:25.954Z,30.40
2017-08-04T12:55:52.858Z,30.70
2017-08-04T12:58:19.804Z,31.30
2017-08-04T13:00:45.970Z,31.40
2017-08-04T13:03:12.201Z,31.20
2017-08-04T13:05:38.366Z,31.00
2017-08-04T13:08:04.518Z,30.60
2017-08-04T13:10:31.959Z,30.80
2017-08-04T13:12:58.567Z,31.20
2017-08-04T13:15:25.515Z,31.30
2017-08-04T13:17:51.687Z,31.00
2017-08-04T13:20:17.888Z,31.30
2017-08-04T13:22:44.075Z,30.90
2017-08-04T13:25:10.299Z,30.00
2017-08-04T13:27:36.468Z,29.20
2017-08-04T13:30:02.718Z,29.80
2017-08-04T13:32:28.941Z,29.80
2017-08-04T13:34:55.892Z,30.30
2017-08-04T13:37:22.817Z,29.60
2017-08-04T13:39:49.008Z,29.70
2017-08-04T13:42:15.206Z,29.80
2017-08-04T13:44:41.413Z,29.50
2017-08-04T13:47:07.594Z,29.40
2017-08-04T13:49:34.679Z,30.10
2017-08-04T13:52:00.953Z,30.00
2017-08-04T13:54:27.281Z,29.50
2017-08-04T13:56:53.562Z,29.30
2017-08-04T13:59:20.842Z,28.50
2017-08-04T14:01:47.107Z,29.00
2017-08-04T14:04:13.320Z,29.00
2017-08-04T14:06:39.506Z,30.30
2017-08-04T14:09:05.695Z,30.20
2017-08-04T14:11:31.848Z,30.40
2017-08-04T14:13:58.052Z,30.20
2017-08-04T14:16:24.262Z,29.70
2017-08-04T14:18:50.523Z,29.20
2017-08-04T14:21:16.716Z,29.00
2017-08-04T14:23:42.881Z,28.90
2017-08-04T14:26:09.079Z,28.50
2017-08-04T14:28:35.320Z,28.30
2017-08-04T14:31:01.503Z,28.30
2017-08-04T14:33:27.733Z,28.00
2017-08-04T14:35:53.914Z,28.10
2017-08-04T14:38:20.119Z,28.10
2017-08-04T14:40:47.039Z,28.00
2017-08-04T14:43:14.043Z,27.80
2017-08-04T14:45:40.255Z,27.80
2017-08-04T14:48:06.466Z,27.80
2017-08-04T14:50:32.647Z,27.80
2017-08-04T14:52:58.815Z,27.60
2017-08-04T14:55:25.043Z,27.50
2017-08-04T14:57:51.971Z,27.40
2017-08-04T15:00:18.900Z,27.20
2017-08-04T15:02:45.922Z,27.20
2017-08-04T15:05:12.114Z,27.20
2017-08-04T15:07:38.306Z,27.10
2017-08-04T15:10:04.503Z,27.00
2017-08-04T15:12:30.721Z,26.90
2017-08-04T15:14:56.941Z,26.90
2017-08-04T15:17:23.897Z,26.90
2017-08-04T15:19:50.142Z,26.90
2017-08-04T15:22:16.426Z,26.80
2017-08-04T15:24:43.468Z,26.60
2017-08-04T15:27:10.444Z,26.50
2017-08-04T15:29:36.620Z,26.40
2017-08-04T15:32:02.843Z,26.40
2017-08-04T15:34:29.051Z,26.50
2017-08-04T15:36:55.219Z,26.40
2017-08-04T15:39:22.155Z,26.40
2017-08-04T15:41:48.313Z,26.30
2017-08-04T15:44:14.563Z,26.20
2017-08-04T15:46:41.611Z,26.20
2017-08-04T15:49:07.879Z,26.10
2017-08-04T15:51:34.154Z,26.00
2017-08-04T15:54:00.349Z,26.00
2017-08-04T15:56:26.587Z,26.00
2017-08-04T15:58:52.751Z,26.00
2017-08-04T16:01:18.998Z,26.10
2017-08-04T16:03:45.594Z,26.20
2017-08-04T16:06:12.526Z,26.20
2017-08-04T16:08:38.732Z,26.20
2017-08-04T16:11:04.870Z,26.20
2017-08-04T16:13:31.105Z,26.20
2017-08-04T16:15:57.351Z,26.20
2017-08-04T16:18:24.281Z,26.10
2017-08-04T16:20:50.570Z,26.10
2017-08-04T16:23:16.760Z,26.10
2017-08-04T16:25:43.744Z,26.00
2017-08-04T16:38:00.695Z,25.70
2017-08-04T16:40:26.867Z,25.70
2017-08-04T16:42:53.095Z,25.70
2017-08-04T16:45:19.309Z,25.60
2017-08-04T16:47:45.481Z,25.60
2017-08-04T16:50:11.714Z,25.70
2017-08-04T16:52:38.698Z,25.60
2017-08-04T16:55:04.903Z,25.70
2017-08-04T16:57:31.890Z,25.70
2017-08-04T16:59:58.172Z,25.70
2017-08-04T17:02:25.338Z,25.70
2017-08-04T17:04:52.376Z,25.70
2017-08-04T17:07:19.325Z,25.60
2017-08-04T17:09:45.955Z,25.60
2017-08-04T17:12:12.569Z,25.60
2017-08-04T17:14:38.829Z,25.50
2017-08-04T17:17:05.806Z,25.50
2017-08-04T17:19:32.028Z,25.50
2017-08-04T17:21:58.231Z,25.50
2017-08-04T17:24:25.179Z,25.50
2017-08-04T17:26:52.143Z,25.40
2017-08-04T17:29:18.353Z,25.40
2017-08-04T17:31:44.581Z,25.30
2017-08-04T17:34:11.698Z,25.30
2017-08-04T17:36:37.935Z,25.30
2017-08-04T17:39:04.207Z,25.30
2017-08-04T17:41:30.466Z,25.20
2017-08-04T17:43:56.709Z,25.10
2017-08-04T17:46:22.933Z,25.10
2017-08-04T17:48:49.138Z,25.00
2017-08-04T17:51:15.338Z,25.00
2017-08-04T17:53:42.306Z,25.00
2017-08-04T17:56:08.475Z,24.90
2017-08-04T17:58:34.743Z,24.90
2017-08-04T18:01:01.695Z,24.90
2017-08-04T18:03:28.622Z,24.90
2017-08-04T18:05:55.617Z,24.80
2017-08-04T18:08:21.865Z,24.80
2017-08-04T18:10:48.080Z,24.70
2017-08-04T18:13:14.262Z,24.60
2017-08-04T18:15:41.263Z,24.50
2017-08-04T18:18:07.465Z,24.40
2017-08-04T18:20:33.657Z,24.40
2017-08-04T18:22:59.948Z,24.40
2017-08-04T18:25:26.153Z,24.30
2017-08-04T18:27:52.426Z,24.30
2017-08-04T18:30:18.633Z,24.20
2017-08-04T18:32:44.851Z,24.20
2017-08-04T18:35:11.085Z,24.20
2017-08-04T18:37:37.271Z,24.10
2017-08-04T18:40:04.202Z,24.10
2017-08-04T18:42:30.420Z,24.30
2017-08-04T18:44:56.636Z,24.00
2017-08-04T18:47:22.868Z,24.00
2017-08-04T18:49:49.785Z,23.80
2017-08-04T18:52:16.123Z,23.80
2017-08-04T18:54:42.402Z,23.80
2017-08-04T18:57:23.645Z,23.80
2017-08-04T18:59:50.223Z,23.70
2017-08-04T19:02:17.186Z,23.70
2017-08-04T19:04:43.884Z,23.60
2017-08-04T19:07:10.823Z,23.70
2017-08-04T19:09:37.066Z,23.60
2017-08-04T19:12:03.387Z,23.60
2017-08-04T19:14:29.682Z,23.50
2017-08-04T19:16:55.932Z,23.50
2017-08-04T19:19:22.354Z,23.50
2017-08-04T19:21:48.582Z,23.40
2017-08-04T19:24:14.804Z,23.40
2017-08-04T19:26:41.170Z,23.40
2017-08-04T19:29:07.374Z,23.40
2017-08-04T19:31:33.944Z,23.40
2017-08-04T19:34:00.214Z,23.40
2017-08-04T19:36:27.279Z,23.40
2017-08-04T19:38:53.508Z,23.40
2017-08-04T19:41:19.767Z,23.40
2017-08-04T19:43:46.044Z,23.40
2017-08-04T19:46:12.990Z,23.40
2017-08-04T19:48:40.006Z,23.40
2017-08-04T19:51:06.293Z,23.40
2017-08-04T19:53:32.498Z,23.40
2017-08-04T19:55:59.479Z,23.30
2017-08-04T19:58:25.713Z,23.30
2017-08-04T20:00:51.944Z,23.30
2017-08-04T20:03:18.192Z,23.30
2017-08-04T20:05:46.007Z,23.20
2017-08-04T20:08:12.265Z,23.20
2017-08-04T20:10:38.519Z,23.30
2017-08-04T20:13:04.736Z,23.20
2017-08-04T20:15:30.934Z,23.00
2017-08-04T20:17:57.432Z,23.00
2017-08-04T20:20:24.334Z,22.90
2017-08-04T20:22:50.781Z,22.90
2017-08-04T20:25:17.016Z,22.90
2017-08-04T20:27:43.550Z,22.90
2017-08-04T20:30:09.827Z,22.90
2017-08-04T20:32:36.512Z,22.80
2017-08-04T20:35:03.505Z,22.80
2017-08-04T20:37:30.774Z,22.80
2017-08-04T20:39:57.131Z,22.70
2017-08-04T20:42:24.919Z,22.70
2017-08-04T20:44:51.376Z,22.70
2017-08-04T20:47:19.241Z,22.70
2017-08-04T20:49:46.257Z,22.70
2017-08-04T20:52:12.431Z,22.60
2017-08-04T20:54:39.229Z,22.60
2017-08-04T20:57:05.845Z,22.60
2017-08-04T20:59:32.501Z,22.50
2017-08-04T21:01:59.852Z,22.50
2017-08-04T21:04:26.135Z,22.40
2017-08-04T21:06:53.088Z,22.40
2017-08-04T21:09:20.057Z,22.40
2017-08-04T21:11:46.680Z,22.30
2017-08-04T21:14:13.120Z,22.30
2017-08-04T21:16:39.871Z,22.20
2017-08-04T21:19:06.065Z,22.20
2017-08-04T21:21:34.610Z,22.10
2017-08-04T21:24:01.946Z,22.10
2017-08-04T21:26:28.237Z,22.10
2017-08-04T21:28:55.459Z,22.10
2017-08-04T21:31:38.226Z,22.00
2017-08-04T21:34:04.863Z,22.00
2017-08-04T21:36:32.792Z,22.00
2017-08-04T21:38:59.147Z,21.80
2017-08-04T21:41:26.965Z,21.80
2017-08-04T21:43:53.275Z,21.80
2017-08-04T21:46:19.630Z,21.80
2017-08-04T21:48:45.848Z,21.60
2017-08-04T21:51:12.495Z,21.50
2017-08-04T21:53:38.722Z,21.50
2017-08-04T21:56:04.981Z,21.50
2017-08-04T21:58:31.176Z,21.40
2017-08-04T22:00:57.429Z,21.40
2017-08-04T22:03:23.714Z,21.30
2017-08-04T22:05:49.912Z,21.30
2017-08-04T22:08:16.905Z,21.40
2017-08-04T22:10:43.094Z,21.30
2017-08-04T22:13:10.032Z,21.30
2017-08-04T22:15:37.312Z,21.20
2017-08-04T22:18:03.672Z,21.20
2017-08-04T22:20:29.896Z,21.10
2017-08-04T22:22:56.075Z,21.00
2017-08-04T22:25:22.272Z,21.10
2017-08-04T22:27:48.697Z,21.10
2017-08-04T22:30:15.639Z,21.20
2017-08-04T22:32:41.818Z,21.10
2017-08-04T22:35:08.948Z,21.20
2017-08-04T22:37:35.143Z,21.20
2017-08-04T22:40:02.222Z,21.10
2017-08-04T22:42:30.171Z,21.00
2017-08-04T22:44:56.438Z,21.10
2017-08-04T22:47:22.789Z,21.10
2017-08-04T22:49:48.948Z,21.10
2017-08-04T22:52:16.297Z,21.10
2017-08-04T22:54:42.883Z,21.10
2017-08-04T22:57:11.636Z,21.10
2017-08-04T22:59:37.986Z,21.20
2017-08-04T23:02:04.966Z,21.10
2017-08-04T23:04:31.902Z,21.10
2017-08-04T23:06:58.895Z,21.20
2017-08-04T23:09:26.112Z,21.10
2017-08-04T23:11:53.002Z,21.10
2017-08-04T23:14:20.077Z,21.10
2017-08-04T23:16:46.303Z,21.10
2017-08-04T23:19:12.536Z,21.00
2017-08-04T23:21:38.830Z,21.00
2017-08-04T23:24:05.002Z,20.90
2017-08-04T23:26:31.249Z,20.90
2017-08-04T23:28:58.204Z,20.80
2017-08-04T23:31:26.984Z,20.70
2017-08-04T23:33:55.070Z,20.60
2017-08-04T23:36:23.447Z,20.60
2017-08-04T23:38:50.647Z,20.50
2017-08-04T23:41:17.817Z,20.50
2017-08-04T23:43:44.030Z,20.50
2017-08-04T23:46:11.528Z,20.40
2017-08-04T23:48:39.190Z,20.40
2017-08-04T23:51:07.332Z,20.40
2017-08-04T23:53:33.773Z,20.40
2017-08-04T23:56:00.223Z,20.40
2017-08-04T23:58:27.897Z,20.40
